Time;durP1;ratioP1;P1;durP2;ratioP2;P2;SDS_P1;SDS_P2;PMS_P1;PMS_P2;Temp;Humidity;BMP_temperature;BMP_pressure;BME280_temperature;BME280_humidity;BME280_pressure;Samples;Min_cycle;Max_cycle;Signal;HPM_P1;HPM_P2
2022/08/11 00:01:21;;;;;;;7.03;3.10;;;23.80;66.40;;;;;;5094311;28;20201;-79
2022/08/11 00:03:54;;;;;;;5.27;3.30;;;23.70;66.40;;;;;;5098356;28;20229;-79
2022/08/11 00:06:38;;;;;;;10.43;3.17;;;23.70;66.70;;;;;;5085950;28;20608;-79
2022/08/11 00:09:09;;;;;;;3.90;3.10;;;23.70;67.00;;;;;;5092965;28;20200;-79
2022/08/11 00:11:45;;;;;;;8.17;3.13;;;23.70;67.30;;;;;;5090273;28;20193;-79
2022/08/11 00:14:22;;;;;;;4.33;2.80;;;23.70;66.10;;;;;;5097042;28;20226;-79
2022/08/11 00:17:06;;;;;;;4.47;2.70;;;23.60;65.60;;;;;;5081042;28;20213;-79
2022/08/11 00:19:58;;;;;;;12.37;3.50;;;23.60;65.70;;;;;;5088425;28;20521;-79
2022/08/11 00:22:44;;;;;;;5.27;3.50;;;23.60;66.10;;;;;;5091862;28;20200;-80
2022/08/11 00:25:18;;;;;;;6.67;3.07;;;23.60;66.30;;;;;;5107635;28;20219;-80
2022/08/11 00:27:47;;;;;;;7.27;3.27;;;23.60;66.80;;;;;;5078963;28;20244;-80
2022/08/11 00:30:15;;;;;;;5.17;3.00;;;23.60;67.30;;;;;;5094623;28;20205;-80
2022/08/11 00:32:51;;;;;;;5.53;3.20;;;23.60;67.40;;;;;;5086476;28;20306;-79
2022/08/11 00:35:25;;;;;;;6.00;3.73;;;23.50;67.10;;;;;;5083487;28;20194;-79
2022/08/11 00:38:14;;;;;;;5.70;3.37;;;23.50;67.00;;;;;;5092939;28;20201;-80
2022/08/11 00:40:43;;;;;;;3.97;2.60;;;23.50;67.20;;;;;;5084697;28;20617;-79
2022/08/11 00:43:21;;;;;;;5.87;3.53;;;23.50;67.20;;;;;;5094572;28;20197;-80
2022/08/11 00:46:26;;;;;;;5.60;3.10;;;23.40;67.20;;;;;;5095112;28;20223;-79
2022/08/11 00:49:11;;;;;;;7.30;3.27;;;23.40;67.30;;;;;;4997127;28;20204;-79
2022/08/11 00:51:57;;;;;;;3.50;3.20;;;23.30;67.40;;;;;;5084628;28;20223;-80
2022/08/11 00:54:38;;;;;;;5.80;3.13;;;23.20;67.90;;;;;;5091977;28;20197;-79
2022/08/11 00:57:37;;;;;;;6.27;3.13;;;23.20;68.30;;;;;;5093879;28;20269;-80
2022/08/11 01:00:14;;;;;;;10.67;3.60;;;23.10;69.00;;;;;;5051413;28;20634;-79
2022/08/11 01:02:46;;;;;;;5.13;3.60;;;23.10;68.80;;;;;;5084826;28;20202;-80
2022/08/11 01:05:50;;;;;;;6.00;3.13;;;23.00;68.70;;;;;;5097684;28;20512;-80
2022/08/11 01:08:29;;;;;;;3.40;3.10;;;23.00;68.90;;;;;;5079528;28;20273;-79
2022/08/11 01:11:25;;;;;;;6.67;3.67;;;22.90;69.10;;;;;;5091977;28;20197;-80
2022/08/11 01:14:04;;;;;;;4.83;3.30;;;22.90;69.30;;;;;;5079739;28;20210;-79
2022/08/11 01:17:28;;;;;;;5.90;3.73;;;22.90;69.40;;;;;;5095935;28;20200;-79
2022/08/11 01:20:28;;;;;;;7.17;3.77;;;22.90;69.50;;;;;;5034084;28;20207;-79
2022/08/11 01:23:25;;;;;;;14.80;3.70;;;22.80;69.70;;;;;;5028611;28;20207;-80
2022/08/11 01:26:30;;;;;;;5.27;3.17;;;22.80;69.90;;;;;;5092216;28;20217;-79
2022/08/11 01:29:16;;;;;;;11.60;3.37;;;22.80;70.00;;;;;;5096885;28;20201;-80
2022/08/11 01:31:55;;;;;;;12.63;2.93;;;22.80;69.90;;;;;;5083708;28;20603;-79
2022/08/11 01:34:26;;;;;;;4.10;2.97;;;22.80;69.90;;;;;;5100091;28;20197;-79
2022/08/11 01:37:22;;;;;;;4.90;3.00;;;22.80;70.20;;;;;;5089113;28;20224;-80
2022/08/11 01:40:32;;;;;;;5.93;3.47;;;22.80;70.50;;;;;;4998622;28;20223;-79
2022/08/11 01:46:39;;;;;;;9.27;3.50;;;22.70;70.30;;;;;;5094334;28;20277;-80
2022/08/11 01:49:30;;;;;;;6.27;3.60;;;22.60;70.60;;;;;;5059088;28;20213;-80
2022/08/11 01:52:29;;;;;;;10.13;4.43;;;22.60;70.70;;;;;;5094487;28;20255;-80
2022/08/11 01:55:25;;;;;;;7.63;4.13;;;22.50;71.40;;;;;;5095181;28;20203;-79
2022/08/11 01:58:20;;;;;;;4.90;3.53;;;22.50;72.10;;;;;;5096122;28;20284;-80
2022/08/11 02:01:27;;;;;;;8.43;4.27;;;22.50;72.60;;;;;;5082406;28;20212;-80
2022/08/11 02:04:11;;;;;;;8.07;4.50;;;22.50;72.80;;;;;;5097177;28;20229;-80
2022/08/11 02:06:54;;;;;;;10.40;4.27;;;22.50;72.70;;;;;;5085293;28;20227;-79
2022/08/11 02:09:24;;;;;;;10.73;4.70;;;22.60;72.90;;;;;;5085914;28;20224;-80
2022/08/11 02:12:12;;;;;;;6.77;4.60;;;22.60;72.70;;;;;;5078318;28;20274;-79
2022/08/11 02:14:48;;;;;;;7.40;4.90;;;22.60;72.60;;;;;;5089858;28;20200;-79
2022/08/11 02:17:48;;;;;;;9.73;4.37;;;22.70;72.50;;;;;;5086923;28;20190;-79
2022/08/11 02:23:41;;;;;;;5.53;4.00;;;22.70;72.20;;;;;;5081213;28;20217;-79
2022/08/11 02:26:38;;;;;;;6.83;3.70;;;22.70;72.10;;;;;;5088186;28;20225;-79
2022/08/11 02:29:27;;;;;;;3.77;3.33;;;22.70;72.30;;;;;;5099996;28;20260;-80
2022/08/11 02:35:40;;;;;;;6.20;3.40;;;22.70;72.40;;;;;;5093104;28;20222;-79
2022/08/11 02:38:44;;;;;;;5.40;3.53;;;22.70;72.50;;;;;;5092488;28;20194;-80
2022/08/11 02:44:35;;;;;;;6.00;4.13;;;22.60;72.70;;;;;;5089540;28;20251;-80
2022/08/11 02:47:27;;;;;;;11.07;4.43;;;22.60;72.70;;;;;;5104606;28;20671;-80
2022/08/11 02:50:21;;;;;;;14.03;4.13;;;22.60;72.70;;;;;;5092055;28;20189;-80
2022/08/11 02:53:10;;;;;;;4.33;3.80;;;22.60;72.50;;;;;;5095333;28;20197;-80
2022/08/11 02:55:55;;;;;;;8.30;4.00;;;22.50;72.80;;;;;;5078434;28;20297;-79
2022/08/11 02:59:48;;;;;;;16.50;3.87;;;22.50;73.20;;;;;;5093157;28;20258;-80
2022/08/11 03:01:51;;;;;;;5.67;4.33;;;22.40;73.40;;;;;;5081751;28;20869;-80
2022/08/11 03:04:59;;;;;;;7.23;4.13;;;22.40;73.40;;;;;;5092617;28;20212;-80
2022/08/11 03:07:52;;;;;;;7.53;4.23;;;22.30;73.30;;;;;;5109274;28;20217;-80
2022/08/11 03:10:44;;;;;;;6.90;4.00;;;22.30;73.60;;;;;;5099319;28;20200;-80
2022/08/11 03:19:22;;;;;;;4.83;4.10;;;22.30;72.70;;;;;;5110326;28;20193;-80
2022/08/11 03:22:07;;;;;;;5.00;3.87;;;22.30;72.60;;;;;;5091450;28;20206;-80
2022/08/11 03:24:56;;;;;;;6.23;4.60;;;22.30;72.80;;;;;;5099630;28;20239;-81
2022/08/11 03:27:43;;;;;;;5.83;4.03;;;22.20;73.00;;;;;;5082816;28;20227;-80
2022/08/11 03:30:55;;;;;;;5.00;4.40;;;22.20;73.40;;;;;;5105703;28;20201;-80
2022/08/11 03:36:53;;;;;;;8.60;4.10;;;22.30;73.60;;;;;;5102027;28;20208;-80
2022/08/11 03:43:32;;;;;;;6.13;4.00;;;22.30;73.60;;;;;;5095844;28;20205;-80
2022/08/11 03:46:15;;;;;;;9.10;4.47;;;22.30;73.80;;;;;;5092520;28;20217;-80
2022/08/11 03:49:07;;;;;;;5.30;3.90;;;22.30;73.90;;;;;;5084863;28;20287;-78
2022/08/11 03:51:54;;;;;;;4.93;4.23;;;22.40;73.90;;;;;;5095922;28;20278;-78
2022/08/11 03:54:40;;;;;;;18.50;4.40;;;22.40;74.00;;;;;;5095935;28;20587;-79
2022/08/11 03:57:41;;;;;;;7.57;3.83;;;22.40;74.10;;;;;;5069953;28;20650;-79
2022/08/11 04:00:46;;;;;;;6.50;4.13;;;22.40;74.20;;;;;;5100312;28;20205;-78
2022/08/11 04:03:25;;;;;;;7.53;4.67;;;22.40;74.30;;;;;;5078999;28;20197;-80
2022/08/11 04:06:34;;;;;;;6.43;4.03;;;22.50;74.40;;;;;;5100502;28;20213;-80
2022/08/11 04:09:37;;;;;;;6.20;4.03;;;22.50;74.40;;;;;;5101826;28;20227;-79
2022/08/11 04:12:26;;;;;;;7.73;5.60;;;22.50;74.40;;;;;;5079240;28;20599;-80
2022/08/11 04:18:39;;;;;;;9.67;5.13;;;22.60;74.30;;;;;;5092947;28;20205;-79
2022/08/11 04:21:15;;;;;;;6.17;5.33;;;22.70;74.30;;;;;;5090240;28;20224;-79
2022/08/11 04:24:02;;;;;;;6.13;4.93;;;22.70;74.50;;;;;;5082301;28;20213;-79
2022/08/11 04:26:53;;;;;;;12.97;5.23;;;22.70;74.60;;;;;;5087757;28;20227;-80
2022/08/11 04:29:44;;;;;;;11.30;5.17;;;22.70;74.50;;;;;;5099945;28;20205;-80
2022/08/11 04:32:49;;;;;;;8.43;5.10;;;22.70;74.40;;;;;;5096809;28;20211;-80
2022/08/11 04:35:24;;;;;;;9.07;4.67;;;22.70;74.20;;;;;;5091358;28;20229;-79
2022/08/11 04:38:22;;;;;;;11.40;5.03;;;22.70;74.20;;;;;;5071057;28;20215;-80
2022/08/11 04:41:29;;;;;;;9.57;5.10;;;22.70;74.20;;;;;;5085140;28;20631;-80
2022/08/11 04:43:57;;;;;;;9.80;5.37;;;22.70;74.20;;;;;;5089309;28;20202;-80
2022/08/11 04:47:03;;;;;;;9.57;6.00;;;22.70;74.10;;;;;;5085932;28;20205;-80
2022/08/11 05:02:12;;;;;;;8.70;5.10;;;22.80;74.00;;;;;;5093677;28;20231;-80
2022/08/11 05:05:31;;;;;;;11.90;5.37;;;22.80;73.90;;;;;;5098116;28;20198;-81
2022/08/11 05:08:18;;;;;;;8.77;4.93;;;22.90;73.90;;;;;;5086054;28;20189;-80
2022/08/11 05:11:27;;;;;;;5.83;5.07;;;22.90;73.70;;;;;;5085594;28;20202;-81
2022/08/11 05:34:51;;;;;;;7.83;5.43;;;23.80;72.20;;;;;;5088137;28;20207;-78
2022/08/11 05:37:32;;;;;;;6.23;4.87;;;24.00;71.50;;;;;;5079580;28;20207;-79
2022/08/11 05:57:37;;;;;;;8.50;5.60;;;25.20;67.50;;;;;;5084990;28;20294;-79
2022/08/11 06:00:18;;;;;;;10.03;5.40;;;25.30;66.90;;;;;;5076699;28;20648;-79
2022/08/11 06:02:54;;;;;;;9.67;5.10;;;25.40;66.40;;;;;;5096025;28;20215;-79
2022/08/11 06:05:34;;;;;;;7.27;5.43;;;25.50;66.20;;;;;;5086453;28;20221;-79
2022/08/11 06:08:11;;;;;;;4.93;4.20;;;25.60;65.90;;;;;;5097741;28;20194;-80
2022/08/11 06:10:41;;;;;;;10.87;5.20;;;25.70;65.60;;;;;;5076932;28;20202;-78
2022/08/11 06:13:13;;;;;;;11.17;4.63;;;25.80;65.30;;;;;;5078245;28;20239;-79
2022/08/11 06:15:50;;;;;;;7.33;4.60;;;25.90;64.70;;;;;;5083416;28;20202;-79
2022/08/11 06:18:18;;;;;;;6.47;4.77;;;26.10;64.30;;;;;;5092363;28;20189;-79
2022/08/11 06:20:54;;;;;;;14.17;4.73;;;26.20;63.90;;;;;;5087960;28;20414;-80
2022/08/11 06:23:24;;;;;;;8.80;4.67;;;26.30;63.30;;;;;;5070534;28;20268;-79
2022/08/11 06:25:53;;;;;;;9.40;3.97;;;26.40;62.70;;;;;;5088245;28;20234;-79
2022/08/11 06:28:34;;;;;;;7.33;4.53;;;26.50;62.10;;;;;;5111767;28;20202;-79
2022/08/11 06:31:16;;;;;;;6.47;4.70;;;26.70;61.80;;;;;;5082544;28;20223;-78
2022/08/11 06:33:56;;;;;;;7.10;4.27;;;26.80;60.50;;;;;;5098411;28;20289;-79
2022/08/11 06:36:35;;;;;;;7.27;3.90;;;26.90;59.80;;;;;;5098267;28;20319;-79
2022/08/11 06:39:38;;;;;;;6.83;4.40;;;27.00;60.00;;;;;;5094530;28;20234;-79
2022/08/11 06:42:09;;;;;;;7.03;3.03;;;27.10;58.80;;;;;;5096721;28;20221;-79
2022/08/11 06:44:43;;;;;;;4.63;2.90;;;27.20;57.90;;;;;;5108582;27;20197;-79
2022/08/11 06:47:12;;;;;;;7.70;3.00;;;27.30;56.60;;;;;;5068855;28;20290;-79
2022/08/11 06:52:37;;;;;;;5.17;2.70;;;27.50;54.90;;;;;;5099240;28;20196;-79
2022/08/11 07:00:26;;;;;;;4.07;2.60;;;27.60;54.80;;;;;;5087186;28;20227;-79
2022/08/11 07:01:57;;;;;;;5.40;2.27;;;27.80;53.10;;;;;;5088357;28;20194;-79
2022/08/11 07:04:30;;;;;;;4.63;2.50;;;27.90;51.80;;;;;;5092311;28;21103;-79
2022/08/11 07:16:22;;;;;;;8.33;1.90;;;28.30;49.70;;;;;;5092105;28;20236;-81
2022/08/11 07:30:36;;;;;;;4.60;2.00;;;28.50;49.90;;;;;;5090755;28;20200;-79
2022/08/11 07:33:04;;;;;;;5.13;1.83;;;28.70;49.20;;;;;;5099289;28;20208;-81
2022/08/11 07:35:43;;;;;;;5.43;2.00;;;28.90;49.50;;;;;;5101776;28;20235;-79
2022/08/11 07:38:21;;;;;;;3.90;1.60;;;29.10;47.40;;;;;;5095123;28;20243;-79
2022/08/11 07:40:51;;;;;;;2.47;2.13;;;29.20;47.60;;;;;;5097143;28;21780;-79
2022/08/11 07:43:19;;;;;;;5.17;2.10;;;29.20;47.60;;;;;;5094705;28;20295;-79
2022/08/11 07:54:06;;;;;;;5.43;1.93;;;29.50;46.50;;;;;;5096006;28;20297;-79
2022/08/11 07:56:44;;;;;;;3.40;1.50;;;29.50;46.00;;;;;;5070691;28;20206;-80
2022/08/11 08:19:27;;;;;;;4.33;1.97;;;30.30;44.50;;;;;;5092223;28;20205;-79
2022/08/11 08:21:56;;;;;;;5.10;1.60;;;30.50;44.90;;;;;;5095085;28;20198;-80
2022/08/11 08:24:44;;;;;;;4.03;2.20;;;30.60;44.20;;;;;;5088310;28;20205;-80
2022/08/11 08:27:13;;;;;;;3.57;1.73;;;30.70;43.00;;;;;;5092365;28;20225;-80
2022/08/11 08:32:30;;;;;;;6.23;1.83;;;30.90;42.30;;;;;;5098589;28;20214;-80
2022/08/11 08:34:58;;;;;;;3.77;1.80;;;30.90;41.90;;;;;;5091058;28;20190;-79
2022/08/11 08:37:26;;;;;;;3.73;1.50;;;30.90;42.40;;;;;;5090415;28;20216;-79
2022/08/11 08:40:14;;;;;;;3.03;1.50;;;30.90;41.20;;;;;;5081003;28;20290;-80
2022/08/11 08:42:50;;;;;;;4.07;1.50;;;31.00;40.40;;;;;;5082327;28;20296;-80
2022/08/11 08:45:19;;;;;;;2.63;1.60;;;31.00;41.00;;;;;;5084459;28;20215;-80
2022/08/11 08:48:01;;;;;;;2.87;1.63;;;31.00;41.40;;;;;;5084925;28;20221;-80
2022/08/11 08:53:23;;;;;;;3.17;1.63;;;31.20;40.40;;;;;;5096414;28;20649;-80
2022/08/11 08:55:55;;;;;;;3.87;1.30;;;31.20;39.80;;;;;;5098606;28;20210;-81
2022/08/11 08:58:25;;;;;;;4.27;1.20;;;31.30;38.70;;;;;;5077317;28;20216;-80
2022/08/11 09:00:55;;;;;;;5.80;1.70;;;31.50;38.70;;;;;;5080091;28;20213;-80
2022/08/11 09:03:23;;;;;;;4.03;1.40;;;31.60;38.80;;;;;;5081957;28;20198;-81
2022/08/11 09:06:13;;;;;;;2.80;1.30;;;31.80;38.20;;;;;;5079020;28;20209;-80
2022/08/11 09:08:42;;;;;;;3.17;1.50;;;32.00;37.00;;;;;;5082432;28;20220;-80
2022/08/11 09:14:03;;;;;;;5.57;1.50;;;32.10;35.30;;;;;;5112061;28;20197;-81
2022/08/11 09:16:35;;;;;;;2.13;1.30;;;32.10;34.80;;;;;;5089372;28;20203;-81
2022/08/11 09:19:04;;;;;;;3.80;1.40;;;32.30;35.10;;;;;;5074099;28;20216;-82
2022/08/11 09:21:32;;;;;;;2.73;1.53;;;32.40;35.60;;;;;;5085462;28;20530;-81
2022/08/11 09:27:06;;;;;;;1.80;1.40;;;32.50;35.20;;;;;;5091501;28;20272;-82
2022/08/11 09:29:36;;;;;;;2.70;1.50;;;32.60;35.30;;;;;;5091216;28;20220;-81
2022/08/11 09:32:07;;;;;;;3.67;2.03;;;32.70;35.00;;;;;;5087513;28;20651;-81
2022/08/11 09:34:38;;;;;;;2.37;1.40;;;32.70;35.40;;;;;;5094713;28;20240;-81
2022/08/11 09:40:30;;;;;;;4.03;1.20;;;32.80;35.10;;;;;;5087203;28;20194;-81
2022/08/11 09:45:52;;;;;;;1.87;1.20;;;32.90;34.10;;;;;;5091391;28;20602;-81
2022/08/11 09:48:24;;;;;;;4.43;1.50;;;32.90;34.70;;;;;;5094107;28;20243;-81
2022/08/11 09:50:54;;;;;;;3.80;1.70;;;33.00;35.10;;;;;;5085529;28;20209;-82
2022/08/11 09:53:24;;;;;;;8.00;1.40;;;33.20;35.10;;;;;;5091199;28;20630;-81
2022/08/11 09:59:06;;;;;;;3.87;1.40;;;33.40;33.10;;;;;;5108468;28;20197;-82
2022/08/11 10:01:42;;;;;;;1.67;1.00;;;33.50;33.90;;;;;;5083536;28;20576;-81
2022/08/11 10:04:21;;;;;;;2.20;1.50;;;33.50;33.30;;;;;;5080091;28;20197;-81
2022/08/11 10:07:00;;;;;;;1.50;1.40;;;33.50;33.10;;;;;;5101875;28;20642;-81
2022/08/11 10:09:49;;;;;;;1.97;1.50;;;33.60;33.10;;;;;;5100906;28;20700;-81
2022/08/11 10:12:26;;;;;;;2.63;1.50;;;33.70;32.90;;;;;;5093927;28;20291;-82
2022/08/11 10:20:39;;;;;;;3.87;1.50;;;33.80;32.50;;;;;;5084971;28;20623;-81
2022/08/11 10:28:43;;;;;;;2.80;1.30;;;33.70;30.70;;;;;;5098921;28;20257;-82
2022/08/11 10:34:27;;;;;;;4.23;1.53;;;33.70;30.60;;;;;;5114690;28;20200;-81
2022/08/11 10:37:01;;;;;;;1.83;1.67;;;33.60;31.70;;;;;;5100874;28;20224;-81
2022/08/11 10:39:29;;;;;;;3.10;1.53;;;33.60;31.60;;;;;;5095541;28;20300;-80
2022/08/11 10:47:33;;;;;;;1.90;1.40;;;33.70;31.30;;;;;;5091962;28;20207;-82
2022/08/11 10:47:56;;;;;;;1.30;1.20;;;33.90;30.30;;;;;;5098868;28;20302;-82
2022/08/11 10:58:48;;;;;;;1.20;1.20;;;34.60;29.70;;;;;;5096563;28;20201;-81
2022/08/11 11:01:30;;;;;;;3.77;1.60;;;34.60;29.70;;;;;;5088944;28;20250;-81
2022/08/11 11:04:30;;;;;;;5.87;1.70;;;34.50;30.30;;;;;;5097029;28;20287;-80
2022/08/11 11:07:23;;;;;;;4.27;1.63;;;34.50;29.90;;;;;;5073139;28;20196;-80
2022/08/11 11:10:04;;;;;;;2.13;1.50;;;34.30;30.60;;;;;;5084491;28;20217;-80
2022/08/11 11:18:28;;;;;;;4.27;2.40;;;34.00;31.00;;;;;;5084229;28;20216;-80
2022/08/11 11:21:05;;;;;;;4.50;1.50;;;34.00;30.90;;;;;;5101456;28;20197;-80
2022/08/11 11:23:54;;;;;;;3.70;1.53;;;34.00;31.20;;;;;;5084181;28;20275;-80
2022/08/11 11:26:40;;;;;;;2.70;1.60;;;34.00;30.80;;;;;;5093647;28;20204;-80
2022/08/11 11:29:58;;;;;;;2.97;1.43;;;34.00;30.20;;;;;;5090310;28;20332;-80
2022/08/11 11:32:33;;;;;;;4.30;1.70;;;34.00;30.80;;;;;;5025266;28;20659;-81
2022/08/11 11:35:45;;;;;;;3.10;1.30;;;34.00;30.50;;;;;;5094965;28;20193;-81
2022/08/11 11:38:13;;;;;;;1.60;1.50;;;34.10;30.00;;;;;;5092394;28;20284;-81
2022/08/11 11:40:41;;;;;;;2.03;1.37;;;34.20;29.70;;;;;;5075310;28;20201;-82
2022/08/11 11:43:09;;;;;;;2.23;1.40;;;34.30;29.80;;;;;;5078980;28;20197;-81
2022/08/11 11:45:40;;;;;;;1.80;1.40;;;34.20;30.50;;;;;;5083367;28;20553;-81
2022/08/11 11:48:10;;;;;;;5.23;1.40;;;34.30;30.90;;;;;;5072693;28;20220;-81
2022/08/11 11:50:38;;;;;;;2.77;1.30;;;34.40;30.00;;;;;;5095172;28;20587;-81
2022/08/11 11:53:09;;;;;;;1.53;1.30;;;34.50;29.70;;;;;;5103429;28;20274;-81
2022/08/11 11:55:37;;;;;;;2.33;1.30;;;34.40;30.10;;;;;;5084022;28;20202;-82
2022/08/11 12:03:44;;;;;;;4.50;1.30;;;34.60;29.90;;;;;;5082141;28;20202;-81
2022/08/11 12:06:13;;;;;;;67.00;3.50;;;34.60;29.70;;;;;;5079340;28;20240;-81
2022/08/11 12:08:46;;;;;;;3.33;1.50;;;34.40;30.00;;;;;;5080272;28;20248;-81
2022/08/11 12:14:05;;;;;;;2.53;1.50;;;34.20;30.20;;;;;;5085217;28;20532;-81
2022/08/11 12:16:39;;;;;;;2.47;1.30;;;34.30;30.90;;;;;;5090162;28;20205;-81
2022/08/11 12:19:28;;;;;;;1.60;1.50;;;34.30;29.80;;;;;;5076123;28;20278;-81
2022/08/11 12:27:35;;;;;;;4.53;1.27;;;34.50;31.10;;;;;;5086931;28;20276;-82
2022/08/11 12:30:07;;;;;;;1.17;1.03;;;34.60;30.80;;;;;;5101153;28;20204;-81
2022/08/11 12:32:36;;;;;;;1.40;1.30;;;34.70;30.40;;;;;;5082848;28;20193;-80
2022/08/11 12:35:08;;;;;;;1.40;1.20;;;34.80;30.40;;;;;;5088993;28;20263;-83
2022/08/11 12:37:55;;;;;;;2.67;1.37;;;34.70;29.50;;;;;;5073856;28;20206;-81
2022/08/11 12:46:39;;;;;;;3.50;1.67;;;34.30;30.30;;;;;;5090085;28;20205;-79
2022/08/11 12:52:03;;;;;;;3.43;1.40;;;34.20;30.00;;;;;;5093470;28;20194;-82
2022/08/11 12:54:44;;;;;;;2.90;1.53;;;34.20;29.70;;;;;;5082326;28;20204;-78
2022/08/11 13:05:46;;;;;;;4.37;1.63;;;34.00;29.80;;;;;;5087399;28;20219;-78
2022/08/11 13:08:14;;;;;;;2.37;1.30;;;33.90;30.40;;;;;;5098293;28;20219;-80
2022/08/11 13:13:30;;;;;;;2.80;1.50;;;33.90;30.00;;;;;;5092912;28;20685;-78
2022/08/11 13:16:19;;;;;;;2.83;1.27;;;34.00;30.50;;;;;;5083341;28;20202;-79
2022/08/11 13:18:49;;;;;;;1.30;1.20;;;34.00;29.90;;;;;;5071890;28;20643;-79
2022/08/11 13:21:20;;;;;;;4.57;1.83;;;34.10;30.70;;;;;;5092291;28;20546;-78
2022/08/11 13:23:53;;;;;;;2.20;1.40;;;34.10;30.00;;;;;;5101545;28;20201;-79
2022/08/11 13:26:33;;;;;;;2.17;1.30;;;34.00;30.00;;;;;;5093128;28;20201;-79
2022/08/11 13:29:20;;;;;;;2.20;1.20;;;34.00;29.90;;;;;;5094435;28;20218;-77
2022/08/11 13:31:48;;;;;;;3.97;1.50;;;34.00;29.70;;;;;;5072028;28;20212;-79
2022/08/11 13:34:19;;;;;;;3.03;1.23;;;33.90;30.00;;;;;;5097159;28;20246;-79
2022/08/11 13:36:53;;;;;;;1.10;1.10;;;34.00;30.00;;;;;;5073676;28;20278;-78
2022/08/11 13:39:28;;;;;;;2.80;1.07;;;34.00;30.10;;;;;;5079633;28;20218;-78
2022/08/11 13:41:59;;;;;;;3.23;1.50;;;34.00;30.00;;;;;;5069103;28;20209;-78
2022/08/11 13:44:37;;;;;;;4.97;1.30;;;33.90;30.00;;;;;;5092871;28;20250;-79
2022/08/11 13:47:06;;;;;;;2.50;1.50;;;33.90;29.80;;;;;;5067469;28;20219;-78
2022/08/11 13:49:39;;;;;;;4.87;1.30;;;33.80;29.90;;;;;;5065469;28;20230;-79
2022/08/11 13:52:15;;;;;;;2.50;1.60;;;33.70;30.00;;;;;;5070883;28;20295;-78
2022/08/11 13:54:46;;;;;;;2.57;1.20;;;33.70;29.80;;;;;;5082091;28;20211;-78
2022/08/11 13:57:17;;;;;;;2.13;1.47;;;33.70;30.10;;;;;;5079461;28;20276;-79
2022/08/11 14:00:11;;;;;;;1.33;1.07;;;33.70;30.20;;;;;;5075276;28;20255;-79
2022/08/11 14:02:56;;;;;;;2.67;1.47;;;33.70;30.30;;;;;;5095535;28;20274;-79
2022/08/11 14:05:46;;;;;;;3.23;1.30;;;33.70;30.10;;;;;;5074383;28;20316;-78
2022/08/11 14:08:18;;;;;;;2.60;1.10;;;33.60;30.30;;;;;;5081770;28;20603;-78
2022/08/11 14:14:21;;;;;;;2.30;1.67;;;33.70;30.20;;;;;;5101063;28;20553;-79
2022/08/11 14:16:52;;;;;;;7.50;1.93;;;33.70;30.00;;;;;;5099454;28;20551;-78
2022/08/11 14:19:25;;;;;;;1.60;1.20;;;33.70;29.80;;;;;;5065947;28;20647;-79
2022/08/11 14:22:10;;;;;;;1.43;1.33;;;33.60;30.00;;;;;;5091412;28;20593;-80
2022/08/11 14:24:48;;;;;;;1.40;1.23;;;33.60;30.20;;;;;;5084720;28;20236;-78
2022/08/11 14:27:31;;;;;;;1.70;1.10;;;33.50;30.30;;;;;;5081125;28;20218;-78
2022/08/11 14:33:04;;;;;;;3.63;1.50;;;33.40;30.00;;;;;;5090529;28;20194;-78
2022/08/11 14:35:43;;;;;;;1.50;1.33;;;33.40;30.00;;;;;;5077545;28;20286;-78
2022/08/11 14:38:18;;;;;;;3.90;1.67;;;33.30;29.90;;;;;;5078652;28;20194;-80
2022/08/11 14:49:28;;;;;;;2.77;1.60;;;33.20;30.50;;;;;;5081526;28;20241;-79
2022/08/11 14:51:57;;;;;;;1.40;1.27;;;33.10;30.00;;;;;;5072874;28;20202;-79
2022/08/11 14:57:18;;;;;;;4.20;1.73;;;33.10;30.40;;;;;;5095116;28;20208;-80
2022/08/11 15:00:11;;;;;;;1.70;1.33;;;33.00;30.10;;;;;;5095385;28;20537;-79
2022/08/11 15:05:27;;;;;;;1.83;1.53;;;33.00;30.70;;;;;;5085891;28;20215;-80
2022/08/11 15:07:56;;;;;;;1.27;1.10;;;32.90;30.90;;;;;;5088419;28;20276;-80
2022/08/11 15:10:24;;;;;;;3.57;1.57;;;32.90;30.90;;;;;;5090599;28;20200;-82
2022/08/11 15:12:53;;;;;;;2.20;1.40;;;33.00;30.50;;;;;;5076884;28;20245;-81
2022/08/11 15:18:32;;;;;;;2.47;1.30;;;32.90;30.60;;;;;;5016882;28;20212;-81
2022/08/11 15:37:51;;;;;;;3.73;1.33;;;32.60;30.50;;;;;;5096102;28;20264;-82
2022/08/11 15:46:09;;;;;;;1.33;1.23;;;32.40;30.20;;;;;;5088425;28;20197;-82
2022/08/11 15:49:06;;;;;;;2.97;1.30;;;32.40;30.50;;;;;;5077596;28;20218;-81
2022/08/11 15:52:05;;;;;;;1.77;1.20;;;32.40;30.50;;;;;;5092938;28;20235;-80
2022/08/11 15:54:34;;;;;;;4.13;1.50;;;32.30;30.20;;;;;;5084920;28;20212;-81
2022/08/11 15:57:04;;;;;;;2.60;1.20;;;32.30;30.30;;;;;;5090133;28;20197;-80
2022/08/11 16:04:53;;;;;;;1.53;1.43;;;32.20;30.40;;;;;;5082179;28;20200;-81
2022/08/11 16:07:26;;;;;;;1.90;1.20;;;32.10;30.10;;;;;;5076804;28;20217;-81
2022/08/11 16:09:59;;;;;;;3.10;1.33;;;32.10;30.20;;;;;;5086686;28;20930;-81
2022/08/11 16:12:34;;;;;;;2.60;1.63;;;32.00;29.90;;;;;;5093883;28;20283;-81
2022/08/11 16:18:00;;;;;;;1.20;1.10;;;31.90;29.70;;;;;;5088401;28;20201;-81
2022/08/11 16:20:30;;;;;;;3.50;1.30;;;31.80;29.80;;;;;;5088694;28;20524;-80
2022/08/11 16:23:01;;;;;;;4.10;1.60;;;31.70;29.90;;;;;;5088687;28;20193;-80
2022/08/11 16:25:32;;;;;;;2.20;1.30;;;31.70;30.00;;;;;;5085724;28;20215;-81
2022/08/11 16:28:20;;;;;;;1.37;1.20;;;31.60;29.90;;;;;;5090043;28;20201;-81
2022/08/11 16:30:49;;;;;;;2.97;1.60;;;31.60;29.80;;;;;;5087489;28;20198;-81
2022/08/11 16:33:19;;;;;;;1.20;1.10;;;31.50;29.80;;;;;;5085039;28;20229;-81
2022/08/11 16:38:58;;;;;;;1.43;1.30;;;31.40;30.00;;;;;;5084208;28;20241;-81
2022/08/11 16:47:10;;;;;;;2.37;1.57;;;31.20;30.00;;;;;;5097148;28;20751;-80
2022/08/11 16:49:45;;;;;;;1.80;1.70;;;31.20;30.20;;;;;;5078096;28;20304;-80
2022/08/11 16:52:19;;;;;;;1.30;1.17;;;31.10;30.30;;;;;;5075254;28;20213;-81
2022/08/11 16:54:47;;;;;;;5.83;1.33;;;31.10;29.70;;;;;;5079833;28;20285;-82
2022/08/11 17:00:14;;;;;;;2.07;1.20;;;31.00;30.00;;;;;;5092827;28;20196;-81
2022/08/11 17:14:18;;;;;;;2.50;1.10;;;30.70;28.80;;;;;;5112717;28;20224;-80
2022/08/11 17:17:05;;;;;;;1.23;1.13;;;30.70;29.00;;;;;;5085340;28;20233;-80
2022/08/11 17:19:37;;;;;;;1.43;1.07;;;30.60;28.90;;;;;;5103127;28;20197;-83
2022/08/11 17:25:14;;;;;;;1.03;0.90;;;30.50;29.10;;;;;;5080584;28;20194;-81
2022/08/11 17:27:43;;;;;;;3.93;1.10;;;30.40;29.10;;;;;;5086886;28;20215;-80
2022/08/11 17:30:12;;;;;;;2.73;1.20;;;30.40;29.30;;;;;;5072721;28;20227;-80
2022/08/11 17:35:40;;;;;;;2.80;1.40;;;30.30;29.60;;;;;;5087525;28;20202;-81
2022/08/11 17:38:16;;;;;;;0.90;0.90;;;30.20;29.70;;;;;;5092051;28;20211;-81
2022/08/11 17:49:36;;;;;;;2.90;1.23;;;30.00;31.20;;;;;;5099481;28;20627;-82
2022/08/11 18:00:54;;;;;;;4.43;1.23;;;29.70;33.00;;;;;;5089295;28;20201;-81
2022/08/11 18:03:31;;;;;;;5.03;1.53;;;29.60;33.10;;;;;;5086302;28;20654;-81
2022/08/11 18:06:02;;;;;;;2.83;2.00;;;29.50;33.50;;;;;;5081441;28;20193;-81
